createdAt,value
2023-10-12T00:00:21.285Z,8.67
2023-10-12T00:02:49.741Z,7.80
2023-10-12T00:05:20.728Z,7.95
2023-10-12T00:07:51.040Z,8.20
2023-10-12T00:10:19.322Z,8.23
2023-10-12T00:12:48.173Z,8.07
2023-10-12T00:15:25.055Z,7.78
2023-10-12T00:17:55.956Z,8.18
2023-10-12T00:20:36.370Z,8.25
2023-10-12T00:23:15.460Z,8.88
2023-10-12T00:25:49.093Z,9.00
2023-10-12T00:28:20.294Z,8.52
2023-10-12T00:30:56.551Z,8.60
2023-10-12T00:33:25.623Z,8.55
2023-10-12T00:36:06.016Z,8.40
2023-10-12T00:38:34.226Z,9.23
2023-10-12T00:41:06.135Z,8.80
2023-10-12T00:43:38.458Z,8.90
2023-10-12T00:46:34.350Z,8.73
2023-10-12T00:49:22.416Z,8.98
2023-10-12T00:51:53.288Z,7.83
2023-10-12T00:54:41.894Z,9.02
2023-10-12T00:57:12.477Z,8.77
2023-10-12T00:59:41.371Z,8.55
2023-10-12T01:02:11.027Z,9.13
2023-10-12T01:04:54.294Z,8.57
2023-10-12T01:07:26.482Z,9.23
2023-10-12T01:10:14.073Z,9.65
2023-10-12T01:12:42.172Z,9.27
2023-10-12T01:15:12.697Z,9.40
2023-10-12T01:17:42.265Z,9.77
2023-10-12T01:20:18.608Z,9.10
2023-10-12T01:22:48.390Z,10.00
2023-10-12T01:25:32.598Z,9.15
2023-10-12T01:28:06.820Z,9.80
2023-10-12T01:30:37.450Z,10.20
2023-10-12T01:33:05.979Z,9.48
2023-10-12T01:35:34.884Z,9.43
2023-10-12T01:38:02.877Z,9.10
2023-10-12T01:40:54.629Z,10.57
2023-10-12T01:43:22.801Z,9.63
2023-10-12T01:46:00.594Z,9.20
2023-10-12T01:48:34.802Z,10.68
2023-10-12T01:51:16.285Z,10.30
2023-10-12T01:53:44.428Z,10.48
2023-10-12T01:56:12.838Z,9.43
2023-10-12T01:58:44.478Z,9.90
2023-10-12T02:01:20.339Z,10.20
2023-10-12T02:03:49.588Z,10.02
2023-10-12T02:06:23.933Z,10.80
2023-10-12T02:08:54.102Z,9.27
2023-10-12T02:11:22.040Z,9.57
2023-10-12T02:13:51.649Z,9.30
2023-10-12T02:16:32.524Z,10.45
2023-10-12T02:19:06.261Z,10.30
2023-10-12T02:21:38.865Z,10.33
2023-10-12T02:24:09.593Z,10.43
2023-10-12T02:26:50.887Z,10.38
2023-10-12T02:29:19.537Z,10.57
2023-10-12T02:31:52.196Z,10.02
2023-10-12T02:34:26.937Z,10.43
2023-10-12T02:37:17.564Z,10.45
2023-10-12T02:39:48.266Z,10.07
2023-10-12T02:42:17.652Z,10.18
2023-10-12T02:44:56.205Z,11.10
2023-10-12T02:47:25.723Z,10.70
2023-10-12T02:50:21.782Z,10.30
2023-10-12T02:52:53.920Z,9.95
2023-10-12T02:55:22.268Z,10.43
2023-10-12T02:58:20.471Z,9.70
2023-10-12T03:00:49.023Z,9.80
2023-10-12T03:03:32.156Z,9.32
2023-10-12T03:06:02.429Z,10.30
2023-10-12T03:08:32.088Z,9.95
2023-10-12T03:10:59.950Z,10.45
2023-10-12T03:13:35.921Z,10.80
2023-10-12T03:16:15.245Z,9.93
2023-10-12T03:18:46.441Z,9.88
2023-10-12T03:21:15.280Z,10.30
2023-10-12T03:23:50.025Z,10.68
2023-10-12T03:26:27.814Z,9.90
2023-10-12T03:29:19.531Z,9.82
2023-10-12T03:31:48.343Z,10.45
2023-10-12T03:34:42.481Z,9.63
2023-10-12T03:37:15.647Z,11.02
2023-10-12T03:39:52.240Z,9.63
2023-10-12T03:42:35.694Z,9.80
2023-10-12T03:45:09.884Z,9.75
2023-10-12T03:47:56.566Z,10.40
2023-10-12T03:50:24.247Z,10.15
2023-10-12T03:52:53.530Z,11.47
2023-10-12T03:55:28.602Z,10.68
2023-10-12T03:58:09.039Z,10.55
2023-10-12T04:00:48.877Z,9.85
2023-10-12T04:03:36.464Z,10.23
2023-10-12T04:06:25.085Z,9.93
2023-10-12T04:08:56.064Z,9.15
2023-10-12T04:11:42.730Z,9.93
2023-10-12T04:14:42.478Z,9.32
2023-10-12T04:17:10.887Z,10.27
2023-10-12T04:19:45.259Z,8.97
2023-10-12T04:22:25.792Z,9.05
2023-10-12T04:24:57.142Z,9.30
2023-10-12T04:27:24.769Z,9.43
2023-10-12T04:29:57.962Z,10.25
2023-10-12T04:32:46.504Z,8.73
2023-10-12T04:35:22.402Z,8.73
2023-10-12T04:37:50.356Z,8.43
2023-10-12T04:40:36.887Z,8.90
2023-10-12T04:43:07.836Z,8.18
2023-10-12T04:45:57.785Z,8.43
2023-10-12T04:48:32.867Z,8.05
2023-10-12T04:51:01.140Z,8.57
2023-10-12T04:53:36.929Z,8.40
2023-10-12T04:56:11.514Z,8.57
2023-10-12T04:58:44.354Z,8.13
2023-10-12T05:01:21.407Z,8.10
2023-10-12T05:04:08.089Z,7.75
2023-10-12T05:06:47.569Z,8.77
2023-10-12T05:09:19.462Z,9.13
2023-10-12T05:11:47.974Z,9.00
2023-10-12T05:14:16.320Z,9.02
2023-10-12T05:16:44.287Z,8.73
2023-10-12T05:19:12.844Z,8.40
2023-10-12T05:21:41.253Z,8.90
2023-10-12T05:24:10.045Z,8.67
2023-10-12T05:26:38.959Z,9.35
2023-10-12T05:29:25.290Z,9.38
2023-10-12T05:32:19.868Z,9.35
2023-10-12T05:34:48.135Z,8.23
2023-10-12T05:37:15.976Z,8.70
2023-10-12T05:39:52.276Z,8.95
2023-10-12T05:42:23.825Z,8.95
2023-10-12T05:44:52.742Z,7.90
2023-10-12T05:47:30.614Z,8.13
2023-10-12T05:49:58.611Z,8.97
2023-10-12T05:52:26.961Z,9.15
2023-10-12T05:54:59.686Z,9.35
2023-10-12T05:57:31.277Z,8.88
2023-10-12T05:59:59.772Z,8.98
2023-10-12T06:02:28.237Z,9.43
2023-10-12T06:04:58.293Z,8.40
2023-10-12T06:07:26.074Z,8.85
2023-10-12T06:09:54.793Z,9.18
2023-10-12T06:12:26.012Z,10.07
2023-10-12T06:14:57.115Z,8.90
2023-10-12T06:17:40.722Z,7.95
2023-10-12T06:20:12.528Z,8.45
2023-10-12T06:22:40.387Z,8.88
2023-10-12T06:25:12.417Z,8.82
2023-10-12T06:27:40.575Z,9.33
2023-10-12T06:30:18.573Z,8.70
2023-10-12T06:32:50.250Z,10.13
2023-10-12T06:35:20.620Z,9.70
2023-10-12T06:37:51.425Z,9.50
2023-10-12T06:40:25.390Z,9.20
2023-10-12T06:43:13.783Z,9.35
2023-10-12T06:45:49.617Z,9.45
2023-10-12T06:48:41.070Z,9.45
2023-10-12T06:51:12.326Z,9.82
2023-10-12T06:53:42.444Z,9.20
2023-10-12T06:56:16.346Z,8.57
2023-10-12T06:58:45.002Z,9.40
2023-10-12T07:01:27.725Z,9.00
2023-10-12T07:03:56.093Z,9.23
2023-10-12T07:06:23.875Z,8.27
2023-10-12T07:08:52.478Z,8.85
2023-10-12T07:11:21.506Z,9.50
2023-10-12T07:13:50.975Z,9.38
2023-10-12T07:16:22.439Z,9.48
2023-10-12T07:19:00.997Z,8.90
2023-10-12T07:21:32.554Z,7.47
2023-10-12T07:24:02.434Z,8.63
2023-10-12T07:26:32.080Z,7.47
2023-10-12T07:29:09.027Z,7.93
2023-10-12T07:31:42.920Z,7.13
2023-10-12T07:34:16.874Z,7.90
2023-10-12T07:36:44.771Z,8.40
2023-10-12T07:39:28.121Z,7.18
2023-10-12T07:42:02.291Z,7.60
2023-10-12T07:44:55.123Z,7.43
2023-10-12T07:47:42.177Z,7.62
2023-10-12T07:50:12.683Z,7.90
2023-10-12T07:52:49.522Z,7.32
2023-10-12T07:55:18.902Z,7.50
2023-10-12T07:57:47.678Z,7.23
2023-10-12T08:00:27.876Z,6.75
2023-10-12T08:03:19.055Z,7.45
2023-10-12T08:06:01.894Z,6.65
2023-10-12T08:08:36.209Z,6.87
2023-10-12T08:11:10.790Z,6.63
2023-10-12T08:13:48.974Z,6.68
2023-10-12T08:16:21.023Z,6.70
2023-10-12T08:18:57.967Z,6.60
2023-10-12T08:21:32.145Z,7.00
2023-10-12T08:24:11.564Z,6.57
2023-10-12T08:26:43.089Z,5.60
2023-10-12T08:29:23.579Z,6.43
2023-10-12T08:32:09.555Z,6.40
2023-10-12T08:34:38.148Z,6.28
2023-10-12T08:37:19.311Z,7.47
2023-10-12T08:39:51.327Z,6.30
2023-10-12T08:42:23.918Z,6.43
2023-10-12T08:45:12.002Z,5.97
2023-10-12T08:47:40.448Z,6.25
2023-10-12T08:50:09.280Z,6.20
2023-10-12T08:52:40.694Z,6.22
2023-10-12T08:55:13.571Z,6.30
2023-10-12T08:57:59.415Z,6.12
2023-10-12T09:00:35.995Z,6.10
2023-10-12T09:03:20.379Z,6.50
2023-10-12T09:05:55.742Z,6.37
2023-10-12T09:08:23.754Z,5.57
2023-10-12T09:10:57.403Z,5.70
2023-10-12T09:13:36.111Z,6.12
2023-10-12T09:16:06.511Z,6.00
2023-10-12T09:18:44.721Z,5.97
2023-10-12T09:21:23.264Z,7.20
2023-10-12T09:24:08.117Z,6.57
2023-10-12T09:26:38.458Z,6.57
2023-10-12T09:29:07.061Z,5.60
2023-10-12T09:31:37.376Z,5.75
2023-10-12T09:34:12.916Z,6.37
2023-10-12T09:36:54.721Z,6.05
2023-10-12T09:39:28.552Z,6.20
2023-10-12T09:42:11.214Z,6.67
2023-10-12T09:44:41.123Z,6.60
2023-10-12T09:47:13.841Z,6.93
2023-10-12T09:49:55.552Z,7.00
2023-10-12T09:52:25.327Z,7.22
2023-10-12T09:55:00.946Z,6.83
2023-10-12T09:57:29.038Z,7.30
2023-10-12T10:00:19.433Z,6.28
2023-10-12T10:02:50.575Z,7.25
2023-10-12T10:05:18.887Z,7.60
2023-10-12T10:07:56.531Z,7.60
2023-10-12T10:10:37.423Z,7.32
2023-10-12T10:13:15.538Z,7.20
2023-10-12T10:15:57.152Z,6.70
2023-10-12T10:18:29.111Z,7.15
2023-10-12T10:21:02.678Z,6.83
2023-10-12T10:23:38.202Z,7.45
2023-10-12T10:26:31.484Z,7.35
2023-10-12T10:29:06.508Z,7.43
2023-10-12T10:31:42.494Z,6.97
2023-10-12T10:34:13.373Z,8.30
2023-10-12T10:36:42.597Z,7.00
2023-10-12T10:39:17.046Z,7.00
2023-10-12T10:41:47.636Z,7.72
2023-10-12T10:44:22.985Z,7.53
2023-10-12T10:46:55.713Z,7.47
2023-10-12T10:49:34.209Z,7.32
2023-10-12T10:52:07.371Z,7.45
2023-10-12T10:54:39.531Z,8.20
2023-10-12T10:57:25.801Z,7.70
2023-10-12T10:59:53.870Z,7.53
2023-10-12T11:02:22.558Z,7.80
2023-10-12T11:05:03.432Z,7.57
2023-10-12T11:07:32.518Z,7.07
2023-10-12T11:10:00.115Z,7.30
2023-10-12T11:12:32.865Z,6.93
2023-10-12T11:15:27.349Z,7.22
2023-10-12T11:17:58.291Z,7.32
2023-10-12T11:20:46.600Z,6.65
2023-10-12T11:23:17.060Z,6.37
2023-10-12T11:25:47.278Z,6.93
2023-10-12T11:28:24.886Z,7.05
2023-10-12T11:30:54.142Z,7.62
2023-10-12T11:33:28.328Z,7.50
2023-10-12T11:36:02.052Z,7.15
2023-10-12T11:38:29.911Z,6.50
2023-10-12T11:41:12.410Z,6.57
2023-10-12T11:43:51.000Z,7.18
2023-10-12T11:46:20.078Z,6.82
2023-10-12T11:49:12.201Z,7.62
2023-10-12T11:51:52.075Z,6.60
2023-10-12T11:54:23.845Z,6.57
2023-10-12T11:56:53.003Z,6.68
2023-10-12T11:59:28.475Z,7.30
2023-10-12T12:01:58.565Z,6.50
2023-10-12T12:05:07.753Z,7.47
2023-10-12T12:07:36.621Z,6.40
2023-10-12T12:10:08.658Z,6.40
2023-10-12T12:12:39.933Z,5.65
2023-10-12T12:15:08.594Z,6.25
2023-10-12T12:17:36.489Z,6.30
2023-10-12T12:20:08.888Z,6.25
2023-10-12T12:22:44.202Z,6.80
2023-10-12T12:25:24.551Z,6.25
2023-10-12T12:28:00.159Z,6.50
2023-10-12T12:33:10.235Z,6.07
2023-10-12T12:35:39.302Z,6.55
2023-10-12T12:38:28.772Z,5.70
2023-10-12T12:40:57.342Z,6.18
2023-10-12T12:43:25.423Z,5.90
2023-10-12T12:45:53.961Z,6.03
2023-10-12T12:48:21.656Z,6.55
2023-10-12T12:50:49.748Z,6.20
2023-10-12T12:53:20.333Z,5.95
2023-10-12T12:55:48.222Z,6.67
2023-10-12T12:58:17.788Z,5.68
2023-10-12T13:00:49.535Z,5.60
2023-10-12T13:03:18.111Z,5.78
2023-10-12T13:05:47.638Z,5.32
2023-10-12T13:08:18.101Z,6.23
2023-10-12T13:10:46.396Z,4.93
2023-10-12T13:13:14.088Z,5.87
2023-10-12T13:15:48.582Z,5.60
2023-10-12T13:18:17.010Z,5.53
2023-10-12T13:20:49.051Z,5.80
2023-10-12T13:23:22.878Z,5.65
2023-10-12T13:25:51.519Z,4.72
2023-10-12T13:28:19.816Z,4.97
2023-10-12T13:30:47.696Z,5.97
2023-10-12T13:33:15.382Z,4.97
2023-10-12T13:35:43.481Z,5.22
2023-10-12T13:38:12.493Z,5.75
2023-10-12T13:40:40.959Z,5.10
2023-10-12T13:43:27.626Z,5.87
2023-10-12T13:45:58.610Z,5.17
2023-10-12T13:48:28.367Z,5.20
2023-10-12T13:51:14.338Z,5.45
2023-10-12T13:53:43.120Z,4.82
2023-10-12T13:56:11.346Z,6.07
2023-10-12T13:58:40.598Z,5.60
2023-10-12T14:01:15.978Z,5.60
2023-10-12T14:03:46.861Z,5.05
2023-10-12T14:06:15.132Z,4.93
2023-10-12T14:08:43.573Z,5.05
2023-10-12T14:11:15.451Z,5.47
2023-10-12T14:13:43.981Z,4.82
2023-10-12T14:16:13.264Z,5.00
2023-10-12T14:18:41.984Z,5.20
2023-10-12T14:21:16.304Z,5.62
2023-10-12T14:23:49.484Z,5.00
2023-10-12T14:26:23.822Z,4.80
2023-10-12T14:28:53.158Z,4.62
2023-10-12T14:31:24.579Z,5.20
2023-10-12T14:33:53.600Z,5.12
2023-10-12T14:36:22.046Z,4.90
2023-10-12T14:38:50.546Z,4.68
2023-10-12T14:41:19.081Z,4.32
2023-10-12T14:43:50.026Z,4.28
2023-10-12T14:46:21.859Z,4.90
2023-10-12T14:48:53.449Z,4.87
2023-10-12T14:51:30.569Z,4.87
2023-10-12T14:53:58.707Z,5.00
2023-10-12T14:56:31.363Z,5.20
2023-10-12T14:58:59.341Z,5.03
2023-10-12T15:01:30.828Z,6.30
2023-10-12T15:03:59.589Z,5.50
2023-10-12T15:06:32.959Z,5.35
2023-10-12T15:09:00.925Z,5.07
2023-10-12T15:11:31.737Z,5.10
2023-10-12T15:14:01.643Z,4.50
2023-10-12T15:16:32.283Z,4.50
2023-10-12T15:19:01.492Z,4.78
2023-10-12T15:21:31.486Z,4.70
2023-10-12T15:24:03.191Z,5.20
2023-10-12T15:26:30.993Z,4.70
2023-10-12T15:28:58.620Z,4.87
2023-10-12T15:31:30.996Z,5.20
2023-10-12T15:33:59.415Z,4.55
2023-10-12T15:36:27.379Z,4.82
2023-10-12T15:38:55.011Z,4.93
2023-10-12T15:41:23.522Z,4.85
2023-10-12T15:43:53.198Z,5.85
2023-10-12T15:46:21.291Z,5.18
2023-10-12T15:48:50.617Z,6.35
2023-10-12T15:51:20.953Z,6.47
2023-10-12T15:53:51.020Z,5.20
2023-10-12T15:56:19.553Z,5.70
2023-10-12T15:58:52.069Z,5.75
2023-10-12T16:01:21.290Z,5.37
2023-10-12T16:03:49.496Z,5.50
2023-10-12T16:06:17.078Z,6.15
2023-10-12T16:08:47.422Z,4.65
2023-10-12T16:11:17.794Z,4.40
2023-10-12T16:13:47.075Z,5.47
2023-10-12T16:16:15.907Z,4.83
2023-10-12T16:18:44.516Z,4.75
2023-10-12T16:21:17.310Z,4.97
2023-10-12T16:23:46.342Z,4.65
2023-10-12T16:26:15.934Z,5.03
2023-10-12T16:28:44.419Z,4.80
2023-10-12T16:31:13.018Z,4.90
2023-10-12T16:33:41.632Z,4.75
2023-10-12T16:36:10.914Z,4.95
2023-10-12T16:38:39.108Z,5.07
2023-10-12T16:41:10.056Z,4.83
2023-10-12T16:43:38.612Z,4.37
2023-10-12T16:46:07.965Z,5.03
2023-10-12T16:48:36.408Z,4.35
2023-10-12T16:51:06.975Z,4.62
2023-10-12T16:53:37.351Z,4.77
2023-10-12T16:56:11.472Z,4.70
2023-10-12T16:58:40.415Z,5.10
2023-10-12T17:01:08.321Z,5.30
2023-10-12T17:03:37.468Z,5.60
2023-10-12T17:06:07.282Z,5.07
2023-10-12T17:08:35.453Z,4.87
2023-10-12T17:11:02.999Z,4.75
2023-10-12T17:13:33.884Z,5.10
2023-10-12T17:16:02.318Z,4.90
2023-10-12T17:18:31.036Z,4.20
2023-10-12T17:20:59.823Z,5.28
2023-10-12T17:23:30.123Z,5.25
2023-10-12T17:26:00.048Z,4.97
2023-10-12T17:28:32.085Z,4.75
2023-10-12T17:31:06.823Z,5.07
2023-10-12T17:33:39.142Z,4.90
2023-10-12T17:36:11.740Z,5.75
2023-10-12T17:38:40.286Z,5.12
2023-10-12T17:41:08.329Z,5.45
2023-10-12T17:43:35.980Z,4.90
2023-10-12T17:46:04.245Z,5.03
2023-10-12T17:48:32.840Z,5.15
2023-10-12T17:51:04.835Z,5.47
2023-10-12T17:53:35.703Z,5.47
2023-10-12T17:56:11.477Z,4.93
2023-10-12T17:58:39.646Z,5.45
2023-10-12T18:01:07.539Z,4.60
2023-10-12T18:03:39.482Z,4.40
2023-10-12T18:06:12.080Z,5.20
2023-10-12T18:08:44.614Z,4.47
2023-10-12T18:11:15.544Z,4.87
2023-10-12T18:13:44.960Z,5.22
2023-10-12T18:16:15.508Z,5.03
2023-10-12T18:18:44.157Z,5.32
2023-10-12T18:21:12.029Z,5.03
2023-10-12T18:23:40.993Z,4.68
2023-10-12T18:26:14.894Z,4.93
2023-10-12T18:28:42.752Z,5.53
2023-10-12T18:31:11.528Z,5.78
2023-10-12T18:33:40.806Z,5.70
2023-10-12T18:45:55.896Z,5.62
2023-10-12T18:48:26.758Z,5.03
2023-10-12T18:50:57.578Z,5.22
2023-10-12T18:53:26.214Z,5.22
2023-10-12T18:56:03.784Z,5.28
2023-10-12T18:58:35.814Z,5.37
2023-10-12T19:01:06.611Z,4.93
2023-10-12T19:03:36.229Z,4.68
2023-10-12T19:06:06.399Z,4.93
2023-10-12T19:08:35.012Z,4.85
2023-10-12T19:11:04.201Z,5.60
2023-10-12T19:13:32.115Z,5.20
2023-10-12T19:16:00.661Z,5.32
2023-10-12T19:18:33.381Z,5.10
2023-10-12T19:21:01.861Z,4.62
2023-10-12T19:23:30.230Z,4.95
2023-10-12T19:25:58.856Z,4.97
2023-10-12T19:28:27.495Z,6.00
2023-10-12T19:30:57.459Z,5.30
2023-10-12T19:33:26.058Z,5.15
2023-10-12T19:35:54.230Z,6.12
2023-10-12T19:38:21.825Z,5.10
2023-10-12T19:40:49.630Z,5.05
2023-10-12T19:43:18.572Z,5.65
2023-10-12T19:45:46.609Z,5.30
2023-10-12T19:48:16.568Z,5.37
2023-10-12T19:50:44.676Z,5.33
2023-10-12T19:53:12.815Z,5.47
2023-10-12T19:55:40.669Z,5.00
2023-10-12T19:58:09.782Z,6.82
2023-10-12T20:00:40.968Z,5.70
2023-10-12T20:03:23.999Z,5.40
2023-10-12T20:05:52.233Z,5.70
2023-10-12T20:08:20.256Z,5.22
2023-10-12T20:10:52.576Z,5.68
2023-10-12T20:13:21.074Z,5.40
2023-10-12T20:15:53.161Z,5.10
2023-10-12T20:18:21.365Z,5.85
2023-10-12T20:20:49.402Z,5.70
2023-10-12T20:23:17.343Z,5.53
2023-10-12T20:25:49.096Z,5.55
2023-10-12T20:28:18.459Z,5.17
2023-10-12T20:30:48.045Z,5.35
2023-10-12T20:33:19.842Z,5.32
2023-10-12T20:35:48.533Z,5.78
2023-10-12T20:38:21.703Z,6.03
2023-10-12T20:40:52.619Z,5.53
2023-10-12T20:43:23.014Z,5.78
2023-10-12T20:45:55.674Z,5.28
2023-10-12T20:48:23.850Z,5.47
2023-10-12T20:50:59.165Z,5.68
2023-10-12T20:53:27.789Z,5.70
2023-10-12T20:55:59.245Z,5.65
2023-10-12T20:58:32.259Z,5.70
2023-10-12T21:01:04.432Z,6.07
2023-10-12T21:03:38.175Z,5.47
2023-10-12T21:06:19.944Z,5.27
2023-10-12T21:08:51.241Z,5.15
2023-10-12T21:11:24.813Z,6.07
2023-10-12T21:13:58.838Z,5.12
2023-10-12T21:16:31.045Z,6.57
2023-10-12T21:19:27.952Z,6.03
2023-10-12T21:21:56.255Z,5.45
2023-10-12T21:24:32.325Z,5.25
2023-10-12T21:27:07.473Z,5.00
2023-10-12T21:29:35.112Z,4.95
2023-10-12T21:32:10.448Z,5.50
2023-10-12T21:34:39.199Z,5.43
2023-10-12T21:37:07.385Z,5.47
2023-10-12T21:39:45.317Z,5.90
2023-10-12T21:42:14.638Z,5.47
2023-10-12T21:44:43.039Z,5.47
2023-10-12T21:47:12.246Z,5.93
2023-10-12T21:49:40.414Z,6.15
2023-10-12T21:52:08.498Z,5.05
2023-10-12T21:54:37.369Z,5.37
2023-10-12T21:57:10.785Z,5.77
2023-10-12T21:59:39.641Z,5.40
2023-10-12T22:02:17.274Z,5.15
2023-10-12T22:04:49.109Z,5.20
2023-10-12T22:07:17.497Z,5.53
2023-10-12T22:09:59.528Z,5.50
2023-10-12T22:12:28.606Z,5.18
2023-10-12T22:15:02.618Z,5.15
2023-10-12T22:17:31.027Z,5.03
2023-10-12T22:19:59.217Z,5.70
2023-10-12T22:22:28.675Z,5.00
2023-10-12T22:24:56.868Z,5.30
2023-10-12T22:27:32.202Z,5.43
2023-10-12T22:30:04.815Z,5.50
2023-10-12T22:32:33.981Z,5.22
2023-10-12T22:35:02.289Z,5.33
2023-10-12T22:37:31.748Z,5.68
2023-10-12T22:39:59.701Z,5.68
2023-10-12T22:42:27.872Z,4.82
2023-10-12T22:44:55.692Z,5.20
2023-10-12T22:47:23.444Z,5.40
2023-10-12T22:49:51.479Z,5.15
2023-10-12T22:52:20.007Z,4.90
2023-10-12T22:54:47.872Z,5.25
2023-10-12T22:57:17.022Z,4.97
2023-10-12T22:59:44.810Z,4.70
2023-10-12T23:02:13.030Z,4.60
2023-10-12T23:04:41.440Z,5.40
2023-10-12T23:07:09.918Z,4.40
2023-10-12T23:09:37.711Z,5.07
2023-10-12T23:12:12.679Z,4.50
2023-10-12T23:14:46.029Z,5.37
2023-10-12T23:17:15.237Z,4.97
2023-10-12T23:19:47.143Z,5.18
2023-10-12T23:22:33.667Z,5.22
2023-10-12T23:25:02.447Z,4.63
2023-10-12T23:27:33.452Z,4.87
2023-10-12T23:30:12.034Z,4.53
2023-10-12T23:32:40.307Z,4.40
2023-10-12T23:35:19.715Z,4.45
2023-10-12T23:38:08.692Z,4.47
2023-10-12T23:40:48.394Z,4.47
2023-10-12T23:43:18.818Z,4.47
2023-10-12T23:45:56.387Z,4.20
2023-10-12T23:48:25.780Z,4.78
2023-10-12T23:51:05.755Z,4.10
2023-10-12T23:53:38.129Z,4.35
2023-10-12T23:56:14.944Z,4.75
2023-10-12T23:58:43.789Z,4.62
